sensor_id;sensor_type;location;lat;lon;timestamp;temperature;humidity
5059;DHT22;2548;52.050;11.036;2023-04-25T00:00:03;7.50;99.90
5059;DHT22;2548;52.050;11.036;2023-04-25T00:02:38;7.50;99.90
5059;DHT22;2548;52.050;11.036;2023-04-25T00:05:06;7.50;99.90
5059;DHT22;2548;52.050;11.036;2023-04-25T00:07:34;7.50;99.90
5059;DHT22;2548;52.050;11.036;2023-04-25T00:10:03;7.50;99.90
5059;DHT22;2548;52.050;11.036;2023-04-25T00:12:31;7.50;99.90
5059;DHT22;2548;52.050;11.036;2023-04-25T00:14:59;7.40;99.90
5059;DHT22;2548;52.050;11.036;2023-04-25T00:17:27;7.40;99.90
5059;DHT22;2548;52.050;11.036;2023-04-25T00:19:54;7.40;99.90
5059;DHT22;2548;52.050;11.036;2023-04-25T00:22:22;7.50;99.90
5059;DHT22;2548;52.050;11.036;2023-04-25T00:24:49;7.40;99.90
5059;DHT22;2548;52.050;11.036;2023-04-25T00:27:20;7.40;99.90
5059;DHT22;2548;52.050;11.036;2023-04-25T00:29:48;7.40;99.90
5059;DHT22;2548;52.050;11.036;2023-04-25T00:32:15;7.40;99.90
5059;DHT22;2548;52.050;11.036;2023-04-25T00:34:42;7.50;99.90
5059;DHT22;2548;52.050;11.036;2023-04-25T00:37:10;7.50;99.90
5059;DHT22;2548;52.050;11.036;2023-04-25T00:39:38;7.50;99.90
5059;DHT22;2548;52.050;11.036;2023-04-25T00:42:07;7.40;99.90
5059;DHT22;2548;52.050;11.036;2023-04-25T00:44:37;7.40;99.90
5059;DHT22;2548;52.050;11.036;2023-04-25T00:47:04;7.40;99.90
5059;DHT22;2548;52.050;11.036;2023-04-25T00:49:32;7.50;99.90
5059;DHT22;2548;52.050;11.036;2023-04-25T00:52:00;7.40;99.90
5059;DHT22;2548;52.050;11.036;2023-04-25T00:54:27;7.40;99.90
5059;DHT22;2548;52.050;11.036;2023-04-25T00:56:57;7.40;99.90
5059;DHT22;2548;52.050;11.036;2023-04-25T00:59:27;7.40;99.90
5059;DHT22;2548;52.050;11.036;2023-04-25T01:01:57;7.40;99.90
5059;DHT22;2548;52.050;11.036;2023-04-25T01:04:27;7.40;99.90
5059;DHT22;2548;52.050;11.036;2023-04-25T01:06:54;7.40;99.90
5059;DHT22;2548;52.050;11.036;2023-04-25T01:09:23;7.40;99.90
5059;DHT22;2548;52.050;11.036;2023-04-25T01:11:50;7.40;99.90
5059;DHT22;2548;52.050;11.036;2023-04-25T01:14:18;7.40;99.90
5059;DHT22;2548;52.050;11.036;2023-04-25T01:16:46;7.30;99.90
5059;DHT22;2548;52.050;11.036;2023-04-25T01:19:17;7.30;99.90
5059;DHT22;2548;52.050;11.036;2023-04-25T01:21:48;7.40;99.90
5059;DHT22;2548;52.050;11.036;2023-04-25T01:24:15;7.40;99.90
5059;DHT22;2548;52.050;11.036;2023-04-25T01:26:43;7.40;99.90
5059;DHT22;2548;52.050;11.036;2023-04-25T01:29:19;7.40;99.90
5059;DHT22;2548;52.050;11.036;2023-04-25T01:31:47;7.40;99.90
5059;DHT22;2548;52.050;11.036;2023-04-25T01:34:14;7.40;99.90
5059;DHT22;2548;52.050;11.036;2023-04-25T01:36:42;7.40;99.90
5059;DHT22;2548;52.050;11.036;2023-04-25T01:39:11;7.40;99.90
5059;DHT22;2548;52.050;11.036;2023-04-25T01:41:38;7.40;99.90
5059;DHT22;2548;52.050;11.036;2023-04-25T01:44:06;7.30;99.90
5059;DHT22;2548;52.050;11.036;2023-04-25T01:46:34;7.30;99.90
5059;DHT22;2548;52.050;11.036;2023-04-25T01:49:02;7.20;99.90
5059;DHT22;2548;52.050;11.036;2023-04-25T01:51:30;7.20;99.90
5059;DHT22;2548;52.050;11.036;2023-04-25T01:53:58;7.20;99.90
5059;DHT22;2548;52.050;11.036;2023-04-25T01:56:31;7.10;99.90
5059;DHT22;2548;52.050;11.036;2023-04-25T01:58:59;7.10;99.90
5059;DHT22;2548;52.050;11.036;2023-04-25T02:01:55;7.10;99.90
5059;DHT22;2548;52.050;11.036;2023-04-25T02:04:28;7.10;99.90
5059;DHT22;2548;52.050;11.036;2023-04-25T02:06:56;7.00;99.90
5059;DHT22;2548;52.050;11.036;2023-04-25T02:09:29;7.00;99.90
5059;DHT22;2548;52.050;11.036;2023-04-25T02:11:58;6.90;99.90
5059;DHT22;2548;52.050;11.036;2023-04-25T02:14:26;6.80;99.90
5059;DHT22;2548;52.050;11.036;2023-04-25T02:17:15;6.80;99.90
5059;DHT22;2548;52.050;11.036;2023-04-25T02:19:42;6.70;99.90
5059;DHT22;2548;52.050;11.036;2023-04-25T02:22:10;6.70;99.90
5059;DHT22;2548;52.050;11.036;2023-04-25T02:24:37;6.70;99.90
5059;DHT22;2548;52.050;11.036;2023-04-25T02:27:06;6.70;99.90
5059;DHT22;2548;52.050;11.036;2023-04-25T02:29:35;6.70;99.90
5059;DHT22;2548;52.050;11.036;2023-04-25T02:32:03;6.70;99.90
5059;DHT22;2548;52.050;11.036;2023-04-25T02:34:30;6.70;99.90
5059;DHT22;2548;52.050;11.036;2023-04-25T02:37:00;6.60;99.90
5059;DHT22;2548;52.050;11.036;2023-04-25T02:39:28;6.60;99.90
5059;DHT22;2548;52.050;11.036;2023-04-25T02:41:55;6.70;99.90
5059;DHT22;2548;52.050;11.036;2023-04-25T02:44:24;6.60;99.90
5059;DHT22;2548;52.050;11.036;2023-04-25T02:46:52;6.70;99.90
5059;DHT22;2548;52.050;11.036;2023-04-25T02:49:19;6.60;99.90
5059;DHT22;2548;52.050;11.036;2023-04-25T02:51:47;6.60;99.90
5059;DHT22;2548;52.050;11.036;2023-04-25T02:54:14;6.50;99.90
5059;DHT22;2548;52.050;11.036;2023-04-25T02:56:46;6.50;99.90
5059;DHT22;2548;52.050;11.036;2023-04-25T02:59:19;6.50;99.90
5059;DHT22;2548;52.050;11.036;2023-04-25T03:01:47;6.50;99.90
5059;DHT22;2548;52.050;11.036;2023-04-25T03:04:15;6.50;99.90
5059;DHT22;2548;52.050;11.036;2023-04-25T03:06:45;6.50;99.90
5059;DHT22;2548;52.050;11.036;2023-04-25T03:09:12;6.50;99.90
5059;DHT22;2548;52.050;11.036;2023-04-25T03:11:40;6.50;99.90
5059;DHT22;2548;52.050;11.036;2023-04-25T03:14:07;6.50;99.90
5059;DHT22;2548;52.050;11.036;2023-04-25T03:16:35;6.50;99.90
5059;DHT22;2548;52.050;11.036;2023-04-25T03:19:04;6.60;99.90
5059;DHT22;2548;52.050;11.036;2023-04-25T03:21:34;6.60;99.90
5059;DHT22;2548;52.050;11.036;2023-04-25T03:24:02;6.60;99.90
5059;DHT22;2548;52.050;11.036;2023-04-25T03:26:30;6.60;99.90
5059;DHT22;2548;52.050;11.036;2023-04-25T03:28:58;6.70;99.90
5059;DHT22;2548;52.050;11.036;2023-04-25T03:31:25;6.70;99.90
5059;DHT22;2548;52.050;11.036;2023-04-25T03:33:53;6.70;99.90
5059;DHT22;2548;52.050;11.036;2023-04-25T03:36:23;6.70;99.90
5059;DHT22;2548;52.050;11.036;2023-04-25T03:38:51;6.80;99.90
5059;DHT22;2548;52.050;11.036;2023-04-25T03:41:20;6.80;99.90
5059;DHT22;2548;52.050;11.036;2023-04-25T03:43:52;6.90;99.90
5059;DHT22;2548;52.050;11.036;2023-04-25T03:46:20;6.90;99.90
5059;DHT22;2548;52.050;11.036;2023-04-25T03:48:48;7.00;99.90
5059;DHT22;2548;52.050;11.036;2023-04-25T03:51:23;7.00;99.90
5059;DHT22;2548;52.050;11.036;2023-04-25T03:53:52;7.00;99.90
5059;DHT22;2548;52.050;11.036;2023-04-25T03:56:19;7.10;99.90
5059;DHT22;2548;52.050;11.036;2023-04-25T03:58:52;7.10;99.90
5059;DHT22;2548;52.050;11.036;2023-04-25T04:01:23;7.10;99.90
5059;DHT22;2548;52.050;11.036;2023-04-25T04:03:51;7.00;99.90
5059;DHT22;2548;52.050;11.036;2023-04-25T04:06:19;7.10;99.90
5059;DHT22;2548;52.050;11.036;2023-04-25T04:08:51;7.10;99.90
5059;DHT22;2548;52.050;11.036;2023-04-25T04:11:19;7.10;99.90
5059;DHT22;2548;52.050;11.036;2023-04-25T04:13:47;7.10;99.90
5059;DHT22;2548;52.050;11.036;2023-04-25T04:16:14;7.10;99.90
5059;DHT22;2548;52.050;11.036;2023-04-25T04:18:42;7.10;99.90
5059;DHT22;2548;52.050;11.036;2023-04-25T04:21:09;7.10;99.90
5059;DHT22;2548;52.050;11.036;2023-04-25T04:23:40;7.10;99.90
5059;DHT22;2548;52.050;11.036;2023-04-25T04:26:10;7.00;99.90
5059;DHT22;2548;52.050;11.036;2023-04-25T04:28:56;7.00;99.90
5059;DHT22;2548;52.050;11.036;2023-04-25T04:31:39;6.90;99.90
5059;DHT22;2548;52.050;11.036;2023-04-25T04:34:07;6.90;99.90
5059;DHT22;2548;52.050;11.036;2023-04-25T04:36:36;6.90;99.90
5059;DHT22;2548;52.050;11.036;2023-04-25T04:39:05;6.90;99.90
5059;DHT22;2548;52.050;11.036;2023-04-25T04:41:38;6.90;99.90
5059;DHT22;2548;52.050;11.036;2023-04-25T04:44:31;6.80;99.90
5059;DHT22;2548;52.050;11.036;2023-04-25T04:47:23;6.80;99.90
5059;DHT22;2548;52.050;11.036;2023-04-25T04:50:24;6.80;99.90
5059;DHT22;2548;52.050;11.036;2023-04-25T04:53:13;6.70;99.90
5059;DHT22;2548;52.050;11.036;2023-04-25T04:56:01;6.80;99.90
5059;DHT22;2548;52.050;11.036;2023-04-25T04:58:48;6.80;99.90
5059;DHT22;2548;52.050;11.036;2023-04-25T05:01:30;6.70;99.90
5059;DHT22;2548;52.050;11.036;2023-04-25T05:04:05;6.70;99.90
5059;DHT22;2548;52.050;11.036;2023-04-25T05:06:42;6.70;99.90
5059;DHT22;2548;52.050;11.036;2023-04-25T05:09:33;6.70;99.90
5059;DHT22;2548;52.050;11.036;2023-04-25T05:12:13;6.70;99.90
5059;DHT22;2548;52.050;11.036;2023-04-25T05:14:56;6.70;99.90
5059;DHT22;2548;52.050;11.036;2023-04-25T05:17:46;6.70;99.90
5059;DHT22;2548;52.050;11.036;2023-04-25T05:20:32;6.70;99.90
5059;DHT22;2548;52.050;11.036;2023-04-25T05:23:12;6.80;99.90
5059;DHT22;2548;52.050;11.036;2023-04-25T05:25:42;6.80;99.90
5059;DHT22;2548;52.050;11.036;2023-04-25T05:28:20;6.80;99.90
5059;DHT22;2548;52.050;11.036;2023-04-25T05:31:12;6.80;99.90
5059;DHT22;2548;52.050;11.036;2023-04-25T05:34:00;6.80;99.90
5059;DHT22;2548;52.050;11.036;2023-04-25T05:36:39;6.80;99.90
5059;DHT22;2548;52.050;11.036;2023-04-25T05:39:06;6.90;99.90
5059;DHT22;2548;52.050;11.036;2023-04-25T05:41:53;6.90;99.90
5059;DHT22;2548;52.050;11.036;2023-04-25T05:44:56;6.90;99.90
5059;DHT22;2548;52.050;11.036;2023-04-25T05:47:48;6.90;99.90
5059;DHT22;2548;52.050;11.036;2023-04-25T05:50:20;6.90;99.90
5059;DHT22;2548;52.050;11.036;2023-04-25T05:52:54;7.00;99.90
5059;DHT22;2548;52.050;11.036;2023-04-25T05:55:35;7.00;99.90
5059;DHT22;2548;52.050;11.036;2023-04-25T05:58:16;6.90;99.90
5059;DHT22;2548;52.050;11.036;2023-04-25T06:00:43;6.90;99.90
5059;DHT22;2548;52.050;11.036;2023-04-25T06:03:13;7.00;99.90
5059;DHT22;2548;52.050;11.036;2023-04-25T06:05:41;7.00;99.90
5059;DHT22;2548;52.050;11.036;2023-04-25T06:08:09;7.00;99.90
5059;DHT22;2548;52.050;11.036;2023-04-25T06:10:38;7.10;99.90
5059;DHT22;2548;52.050;11.036;2023-04-25T06:13:08;7.20;99.90
5059;DHT22;2548;52.050;11.036;2023-04-25T06:15:36;7.20;99.90
5059;DHT22;2548;52.050;11.036;2023-04-25T06:18:04;7.20;99.90
5059;DHT22;2548;52.050;11.036;2023-04-25T06:20:33;7.30;99.90
5059;DHT22;2548;52.050;11.036;2023-04-25T06:23:01;7.40;99.90
5059;DHT22;2548;52.050;11.036;2023-04-25T06:25:40;7.50;99.90
5059;DHT22;2548;52.050;11.036;2023-04-25T06:28:08;7.60;99.90
5059;DHT22;2548;52.050;11.036;2023-04-25T06:30:36;7.60;99.90
5059;DHT22;2548;52.050;11.036;2023-04-25T06:33:08;7.70;99.90
5059;DHT22;2548;52.050;11.036;2023-04-25T06:35:37;7.80;99.90
5059;DHT22;2548;52.050;11.036;2023-04-25T06:38:07;7.80;99.90
5059;DHT22;2548;52.050;11.036;2023-04-25T06:40:36;7.80;99.90
5059;DHT22;2548;52.050;11.036;2023-04-25T06:43:04;7.80;99.90
5059;DHT22;2548;52.050;11.036;2023-04-25T06:45:52;7.80;99.90
5059;DHT22;2548;52.050;11.036;2023-04-25T06:48:20;7.70;99.90
5059;DHT22;2548;52.050;11.036;2023-04-25T06:50:50;7.70;99.90
5059;DHT22;2548;52.050;11.036;2023-04-25T06:53:18;7.80;99.90
5059;DHT22;2548;52.050;11.036;2023-04-25T06:55:49;7.90;99.90
5059;DHT22;2548;52.050;11.036;2023-04-25T06:58:18;8.10;99.90
5059;DHT22;2548;52.050;11.036;2023-04-25T07:01:03;8.10;99.90
5059;DHT22;2548;52.050;11.036;2023-04-25T07:03:30;8.10;99.90
5059;DHT22;2548;52.050;11.036;2023-04-25T07:06:03;8.20;99.90
5059;DHT22;2548;52.050;11.036;2023-04-25T07:08:31;8.30;99.90
5059;DHT22;2548;52.050;11.036;2023-04-25T07:10:59;8.40;99.90
5059;DHT22;2548;52.050;11.036;2023-04-25T07:13:26;8.30;99.90
5059;DHT22;2548;52.050;11.036;2023-04-25T07:15:54;8.30;99.90
5059;DHT22;2548;52.050;11.036;2023-04-25T07:18:23;8.40;99.90
5059;DHT22;2548;52.050;11.036;2023-04-25T07:20:51;8.60;99.90
5059;DHT22;2548;52.050;11.036;2023-04-25T07:23:20;8.80;99.90
5059;DHT22;2548;52.050;11.036;2023-04-25T07:25:48;8.60;99.90
5059;DHT22;2548;52.050;11.036;2023-04-25T07:28:20;8.60;99.90
5059;DHT22;2548;52.050;11.036;2023-04-25T07:30:47;8.50;99.90
5059;DHT22;2548;52.050;11.036;2023-04-25T07:33:15;8.40;99.90
5059;DHT22;2548;52.050;11.036;2023-04-25T07:35:42;8.40;99.90
5059;DHT22;2548;52.050;11.036;2023-04-25T07:38:10;8.40;99.90
5059;DHT22;2548;52.050;11.036;2023-04-25T07:40:40;8.30;99.90
5059;DHT22;2548;52.050;11.036;2023-04-25T07:43:09;8.40;99.90
5059;DHT22;2548;52.050;11.036;2023-04-25T07:45:54;8.60;99.90
5059;DHT22;2548;52.050;11.036;2023-04-25T07:48:22;8.60;99.90
5059;DHT22;2548;52.050;11.036;2023-04-25T07:50:52;8.70;99.90
5059;DHT22;2548;52.050;11.036;2023-04-25T07:53:19;8.70;99.90
5059;DHT22;2548;52.050;11.036;2023-04-25T07:55:54;8.60;99.90
5059;DHT22;2548;52.050;11.036;2023-04-25T07:58:22;8.60;99.90
5059;DHT22;2548;52.050;11.036;2023-04-25T08:00:54;8.50;99.90
5059;DHT22;2548;52.050;11.036;2023-04-25T08:03:27;8.50;99.90
5059;DHT22;2548;52.050;11.036;2023-04-25T08:05:55;8.50;99.90
5059;DHT22;2548;52.050;11.036;2023-04-25T08:08:25;8.60;99.90
5059;DHT22;2548;52.050;11.036;2023-04-25T08:10:54;8.60;99.90
5059;DHT22;2548;52.050;11.036;2023-04-25T08:13:21;8.70;99.90
5059;DHT22;2548;52.050;11.036;2023-04-25T08:15:49;8.80;99.90
5059;DHT22;2548;52.050;11.036;2023-04-25T08:18:17;9.00;99.90
5059;DHT22;2548;52.050;11.036;2023-04-25T08:20:46;9.10;99.90
5059;DHT22;2548;52.050;11.036;2023-04-25T08:23:14;9.00;99.90
5059;DHT22;2548;52.050;11.036;2023-04-25T08:25:55;8.90;99.90
5059;DHT22;2548;52.050;11.036;2023-04-25T08:28:26;8.90;99.90
5059;DHT22;2548;52.050;11.036;2023-04-25T08:30:55;8.90;99.90
5059;DHT22;2548;52.050;11.036;2023-04-25T08:33:23;9.00;99.90
5059;DHT22;2548;52.050;11.036;2023-04-25T08:36:00;9.10;99.90
5059;DHT22;2548;52.050;11.036;2023-04-25T08:38:29;9.10;99.90
5059;DHT22;2548;52.050;11.036;2023-04-25T08:41:00;9.10;99.90
5059;DHT22;2548;52.050;11.036;2023-04-25T08:43:29;9.00;99.90
5059;DHT22;2548;52.050;11.036;2023-04-25T08:45:59;9.10;99.90
5059;DHT22;2548;52.050;11.036;2023-04-25T08:48:37;9.20;99.90
5059;DHT22;2548;52.050;11.036;2023-04-25T08:51:07;9.00;99.90
5059;DHT22;2548;52.050;11.036;2023-04-25T08:53:35;8.70;99.90
5059;DHT22;2548;52.050;11.036;2023-04-25T08:56:07;8.70;99.90
5059;DHT22;2548;52.050;11.036;2023-04-25T08:58:35;8.60;99.90
5059;DHT22;2548;52.050;11.036;2023-04-25T09:01:04;8.60;99.90
5059;DHT22;2548;52.050;11.036;2023-04-25T09:03:38;8.70;99.90
5059;DHT22;2548;52.050;11.036;2023-04-25T09:06:05;8.70;99.90
5059;DHT22;2548;52.050;11.036;2023-04-25T09:08:34;8.80;99.90
5059;DHT22;2548;52.050;11.036;2023-04-25T09:11:04;9.00;99.90
5059;DHT22;2548;52.050;11.036;2023-04-25T09:13:32;9.10;99.90
5059;DHT22;2548;52.050;11.036;2023-04-25T09:16:17;9.30;99.90
5059;DHT22;2548;52.050;11.036;2023-04-25T09:19:21;9.50;99.90
5059;DHT22;2548;52.050;11.036;2023-04-25T09:21:49;9.60;99.90
5059;DHT22;2548;52.050;11.036;2023-04-25T09:24:20;9.50;99.90
5059;DHT22;2548;52.050;11.036;2023-04-25T09:26:58;9.30;99.90
5059;DHT22;2548;52.050;11.036;2023-04-25T09:29:30;9.20;99.90
5059;DHT22;2548;52.050;11.036;2023-04-25T09:32:25;9.20;99.90
5059;DHT22;2548;52.050;11.036;2023-04-25T09:34:56;9.20;99.90
5059;DHT22;2548;52.050;11.036;2023-04-25T09:37:27;9.10;99.90
5059;DHT22;2548;52.050;11.036;2023-04-25T09:40:27;9.10;99.90
5059;DHT22;2548;52.050;11.036;2023-04-25T09:43:09;9.00;99.90
5059;DHT22;2548;52.050;11.036;2023-04-25T09:45:41;8.90;99.90
5059;DHT22;2548;52.050;11.036;2023-04-25T09:48:15;8.90;99.90
5059;DHT22;2548;52.050;11.036;2023-04-25T09:50:44;8.80;99.90
5059;DHT22;2548;52.050;11.036;2023-04-25T09:53:12;8.80;99.90
5059;DHT22;2548;52.050;11.036;2023-04-25T09:55:53;8.90;99.90
5059;DHT22;2548;52.050;11.036;2023-04-25T09:58:24;9.00;99.90
5059;DHT22;2548;52.050;11.036;2023-04-25T10:00:52;9.10;99.90
5059;DHT22;2548;52.050;11.036;2023-04-25T10:03:34;9.30;99.90
5059;DHT22;2548;52.050;11.036;2023-04-25T10:06:19;9.30;99.90
5059;DHT22;2548;52.050;11.036;2023-04-25T10:08:51;9.40;99.90
5059;DHT22;2548;52.050;11.036;2023-04-25T10:11:22;9.60;99.90
5059;DHT22;2548;52.050;11.036;2023-04-25T10:13:53;9.60;99.90
5059;DHT22;2548;52.050;11.036;2023-04-25T10:16:21;10.00;99.90
5059;DHT22;2548;52.050;11.036;2023-04-25T10:18:50;10.30;99.90
5059;DHT22;2548;52.050;11.036;2023-04-25T10:21:18;10.60;99.90
5059;DHT22;2548;52.050;11.036;2023-04-25T10:23:47;10.50;99.90
5059;DHT22;2548;52.050;11.036;2023-04-25T10:26:15;10.30;99.90
5059;DHT22;2548;52.050;11.036;2023-04-25T10:29:02;10.00;99.90
5059;DHT22;2548;52.050;11.036;2023-04-25T10:31:31;9.70;99.90
5059;DHT22;2548;52.050;11.036;2023-04-25T10:33:59;9.60;99.90
5059;DHT22;2548;52.050;11.036;2023-04-25T10:36:31;9.50;99.90
5059;DHT22;2548;52.050;11.036;2023-04-25T10:39:04;9.40;99.90
5059;DHT22;2548;52.050;11.036;2023-04-25T10:41:46;9.40;99.90
5059;DHT22;2548;52.050;11.036;2023-04-25T10:44:15;9.30;99.90
5059;DHT22;2548;52.050;11.036;2023-04-25T10:46:46;9.40;99.90
5059;DHT22;2548;52.050;11.036;2023-04-25T10:49:29;9.40;99.90
5059;DHT22;2548;52.050;11.036;2023-04-25T10:52:14;9.40;99.90
5059;DHT22;2548;52.050;11.036;2023-04-25T10:54:42;9.30;99.90
5059;DHT22;2548;52.050;11.036;2023-04-25T10:57:30;9.30;99.90
5059;DHT22;2548;52.050;11.036;2023-04-25T11:00:17;9.10;99.90
5059;DHT22;2548;52.050;11.036;2023-04-25T11:02:46;9.10;99.90
5059;DHT22;2548;52.050;11.036;2023-04-25T11:05:23;9.10;99.90
5059;DHT22;2548;52.050;11.036;2023-04-25T11:07:52;9.10;99.90
5059;DHT22;2548;52.050;11.036;2023-04-25T11:10:20;9.20;99.90
5059;DHT22;2548;52.050;11.036;2023-04-25T11:12:52;9.40;99.90
5059;DHT22;2548;52.050;11.036;2023-04-25T11:15:20;9.80;99.90
5059;DHT22;2548;52.050;11.036;2023-04-25T11:17:48;10.40;99.90
5059;DHT22;2548;52.050;11.036;2023-04-25T11:20:18;10.70;99.90
5059;DHT22;2548;52.050;11.036;2023-04-25T11:22:46;10.80;99.90
5059;DHT22;2548;52.050;11.036;2023-04-25T11:25:15;10.80;99.90
5059;DHT22;2548;52.050;11.036;2023-04-25T11:27:50;10.60;99.90
5059;DHT22;2548;52.050;11.036;2023-04-25T11:30:20;10.40;99.90
5059;DHT22;2548;52.050;11.036;2023-04-25T11:32:47;10.30;99.90
5059;DHT22;2548;52.050;11.036;2023-04-25T11:35:16;10.30;99.90
5059;DHT22;2548;52.050;11.036;2023-04-25T11:37:44;10.20;99.90
5059;DHT22;2548;52.050;11.036;2023-04-25T11:40:11;10.20;99.90
5059;DHT22;2548;52.050;11.036;2023-04-25T11:42:45;10.10;99.90
5059;DHT22;2548;52.050;11.036;2023-04-25T11:45:13;10.20;99.90
5059;DHT22;2548;52.050;11.036;2023-04-25T11:47:42;10.20;99.90
5059;DHT22;2548;52.050;11.036;2023-04-25T11:50:10;10.30;99.90
5059;DHT22;2548;52.050;11.036;2023-04-25T11:52:39;10.30;99.90
5059;DHT22;2548;52.050;11.036;2023-04-25T11:55:08;10.40;99.90
5059;DHT22;2548;52.050;11.036;2023-04-25T11:57:36;10.50;99.90
5059;DHT22;2548;52.050;11.036;2023-04-25T12:00:09;10.70;99.90
5059;DHT22;2548;52.050;11.036;2023-04-25T12:02:42;10.80;99.90
5059;DHT22;2548;52.050;11.036;2023-04-25T12:05:10;10.70;99.90
5059;DHT22;2548;52.050;11.036;2023-04-25T12:07:38;11.10;99.90
5059;DHT22;2548;52.050;11.036;2023-04-25T12:10:08;11.60;99.90
5059;DHT22;2548;52.050;11.036;2023-04-25T12:12:37;11.90;99.90
5059;DHT22;2548;52.050;11.036;2023-04-25T12:15:12;12.00;99.90
5059;DHT22;2548;52.050;11.036;2023-04-25T12:17:45;11.90;99.90
5059;DHT22;2548;52.050;11.036;2023-04-25T12:20:14;11.60;99.90
5059;DHT22;2548;52.050;11.036;2023-04-25T12:22:43;11.20;99.90
5059;DHT22;2548;52.050;11.036;2023-04-25T12:25:12;10.70;99.90
5059;DHT22;2548;52.050;11.036;2023-04-25T12:27:39;10.50;99.90
5059;DHT22;2548;52.050;11.036;2023-04-25T12:30:08;10.30;99.90
5059;DHT22;2548;52.050;11.036;2023-04-25T12:32:36;10.20;99.90
5059;DHT22;2548;52.050;11.036;2023-04-25T12:35:06;10.00;99.90
5059;DHT22;2548;52.050;11.036;2023-04-25T12:37:34;9.80;99.90
5059;DHT22;2548;52.050;11.036;2023-04-25T12:40:01;9.80;99.90
5059;DHT22;2548;52.050;11.036;2023-04-25T12:42:30;9.80;99.90
5059;DHT22;2548;52.050;11.036;2023-04-25T12:44:57;9.80;99.90
5059;DHT22;2548;52.050;11.036;2023-04-25T12:47:25;9.90;99.90
5059;DHT22;2548;52.050;11.036;2023-04-25T12:49:52;10.00;99.90
5059;DHT22;2548;52.050;11.036;2023-04-25T12:52:21;10.10;99.90
5059;DHT22;2548;52.050;11.036;2023-04-25T12:54:49;10.10;99.90
5059;DHT22;2548;52.050;11.036;2023-04-25T12:57:16;10.20;99.90
5059;DHT22;2548;52.050;11.036;2023-04-25T12:59:44;10.30;99.90
5059;DHT22;2548;52.050;11.036;2023-04-25T13:02:11;10.60;99.90
5059;DHT22;2548;52.050;11.036;2023-04-25T13:04:38;10.70;99.90
5059;DHT22;2548;52.050;11.036;2023-04-25T13:07:06;10.90;99.90
5059;DHT22;2548;52.050;11.036;2023-04-25T13:09:35;11.00;99.90
5059;DHT22;2548;52.050;11.036;2023-04-25T13:12:02;11.10;99.90
5059;DHT22;2548;52.050;11.036;2023-04-25T13:14:30;11.20;99.90
5059;DHT22;2548;52.050;11.036;2023-04-25T13:16:57;11.20;99.90
5059;DHT22;2548;52.050;11.036;2023-04-25T13:19:25;11.40;99.90
5059;DHT22;2548;52.050;11.036;2023-04-25T13:21:52;11.40;99.90
5059;DHT22;2548;52.050;11.036;2023-04-25T13:24:20;11.30;99.90
5059;DHT22;2548;52.050;11.036;2023-04-25T13:26:49;11.10;99.90
5059;DHT22;2548;52.050;11.036;2023-04-25T13:29:16;10.70;99.90
5059;DHT22;2548;52.050;11.036;2023-04-25T13:31:44;10.60;99.90
5059;DHT22;2548;52.050;11.036;2023-04-25T13:34:11;10.40;99.90
5059;DHT22;2548;52.050;11.036;2023-04-25T13:36:39;10.20;99.90
5059;DHT22;2548;52.050;11.036;2023-04-25T13:39:06;10.10;99.90
5059;DHT22;2548;52.050;11.036;2023-04-25T13:41:34;9.90;99.90
5059;DHT22;2548;52.050;11.036;2023-04-25T13:44:02;9.70;99.90
5059;DHT22;2548;52.050;11.036;2023-04-25T13:46:30;9.60;99.90
5059;DHT22;2548;52.050;11.036;2023-04-25T13:48:57;9.50;99.90
5059;DHT22;2548;52.050;11.036;2023-04-25T13:51:25;9.40;99.90
5059;DHT22;2548;52.050;11.036;2023-04-25T13:53:52;9.30;99.90
5059;DHT22;2548;52.050;11.036;2023-04-25T13:56:20;9.30;99.90
5059;DHT22;2548;52.050;11.036;2023-04-25T13:58:48;9.30;99.90
5059;DHT22;2548;52.050;11.036;2023-04-25T14:01:17;9.30;99.90
5059;DHT22;2548;52.050;11.036;2023-04-25T14:03:44;9.30;99.90
5059;DHT22;2548;52.050;11.036;2023-04-25T14:06:12;9.30;99.90
5059;DHT22;2548;52.050;11.036;2023-04-25T14:08:39;9.30;99.90
5059;DHT22;2548;52.050;11.036;2023-04-25T14:11:07;9.60;99.90
5059;DHT22;2548;52.050;11.036;2023-04-25T14:13:34;10.10;99.90
5059;DHT22;2548;52.050;11.036;2023-04-25T14:16:02;10.40;99.90
5059;DHT22;2548;52.050;11.036;2023-04-25T14:18:31;10.80;99.90
5059;DHT22;2548;52.050;11.036;2023-04-25T14:20:59;10.90;99.90
5059;DHT22;2548;52.050;11.036;2023-04-25T14:23:27;10.90;99.90
5059;DHT22;2548;52.050;11.036;2023-04-25T14:25:57;10.70;99.90
5059;DHT22;2548;52.050;11.036;2023-04-25T14:28:25;10.60;99.90
5059;DHT22;2548;52.050;11.036;2023-04-25T14:30:53;10.40;99.90
5059;DHT22;2548;52.050;11.036;2023-04-25T14:33:20;10.30;99.90
5059;DHT22;2548;52.050;11.036;2023-04-25T14:35:49;10.20;99.90
5059;DHT22;2548;52.050;11.036;2023-04-25T14:38:17;10.10;99.90
5059;DHT22;2548;52.050;11.036;2023-04-25T14:40:49;10.10;99.90
5059;DHT22;2548;52.050;11.036;2023-04-25T14:43:17;10.00;99.90
5059;DHT22;2548;52.050;11.036;2023-04-25T14:45:44;10.30;99.90
5059;DHT22;2548;52.050;11.036;2023-04-25T14:48:12;10.30;99.90
5059;DHT22;2548;52.050;11.036;2023-04-25T14:50:41;10.20;99.90
5059;DHT22;2548;52.050;11.036;2023-04-25T14:53:10;10.20;99.90
5059;DHT22;2548;52.050;11.036;2023-04-25T14:55:38;10.10;99.90
5059;DHT22;2548;52.050;11.036;2023-04-25T14:58:06;10.00;99.90
5059;DHT22;2548;52.050;11.036;2023-04-25T15:00:34;9.90;99.90
5059;DHT22;2548;52.050;11.036;2023-04-25T15:03:01;9.80;99.90
5059;DHT22;2548;52.050;11.036;2023-04-25T15:05:30;9.80;99.90
5059;DHT22;2548;52.050;11.036;2023-04-25T15:07:58;9.80;99.90
5059;DHT22;2548;52.050;11.036;2023-04-25T15:10:28;9.80;99.90
5059;DHT22;2548;52.050;11.036;2023-04-25T15:12:58;9.70;99.90
5059;DHT22;2548;52.050;11.036;2023-04-25T15:15:27;9.60;99.90
5059;DHT22;2548;52.050;11.036;2023-04-25T15:17:55;9.50;99.90
5059;DHT22;2548;52.050;11.036;2023-04-25T15:20:26;9.40;99.90
5059;DHT22;2548;52.050;11.036;2023-04-25T15:23:00;9.40;99.90
5059;DHT22;2548;52.050;11.036;2023-04-25T15:25:30;9.40;99.90
5059;DHT22;2548;52.050;11.036;2023-04-25T15:28:01;9.60;99.90
5059;DHT22;2548;52.050;11.036;2023-04-25T15:30:29;9.90;99.90
5059;DHT22;2548;52.050;11.036;2023-04-25T15:33:05;10.00;99.90
5059;DHT22;2548;52.050;11.036;2023-04-25T15:35:33;10.10;99.90
5059;DHT22;2548;52.050;11.036;2023-04-25T15:38:01;10.10;99.90
5059;DHT22;2548;52.050;11.036;2023-04-25T15:40:30;10.20;99.90
5059;DHT22;2548;52.050;11.036;2023-04-25T15:43:01;10.40;99.90
5059;DHT22;2548;52.050;11.036;2023-04-25T15:45:30;10.50;99.90
5059;DHT22;2548;52.050;11.036;2023-04-25T15:47:58;10.60;99.90
5059;DHT22;2548;52.050;11.036;2023-04-25T15:50:27;10.30;99.90
5059;DHT22;2548;52.050;11.036;2023-04-25T15:52:55;10.00;99.90
5059;DHT22;2548;52.050;11.036;2023-04-25T15:55:23;9.90;99.90
5059;DHT22;2548;52.050;11.036;2023-04-25T15:57:56;9.80;99.90
5059;DHT22;2548;52.050;11.036;2023-04-25T16:00:24;9.70;99.90
5059;DHT22;2548;52.050;11.036;2023-04-25T16:02:51;9.60;99.90
5059;DHT22;2548;52.050;11.036;2023-04-25T16:05:19;9.50;99.90
5059;DHT22;2548;52.050;11.036;2023-04-25T16:07:47;9.30;99.90
5059;DHT22;2548;52.050;11.036;2023-04-25T16:10:17;9.20;99.90
5059;DHT22;2548;52.050;11.036;2023-04-25T16:12:49;9.20;99.90
5059;DHT22;2548;52.050;11.036;2023-04-25T16:15:21;9.10;99.90
5059;DHT22;2548;52.050;11.036;2023-04-25T16:17:49;9.10;99.90
5059;DHT22;2548;52.050;11.036;2023-04-25T16:20:16;9.00;99.90